Aviation Digital Data Service (ADDS)

Output produced by METARs form (0951 UTC 23 April 2017)
found at http://www.aviationweather.gov/adds/metars/
 
LMML 230915Z 28010KT 220V320 9999 SCT037 17/05 Q1023 NOSIG
TAF LMML 230500Z 2306/2406 30007KT 9999 FEW020